Gaia — PC4584 — position and weather

sailwx.info

Track history (hours):
 
Tides and Currents Weather Stations Pressure Air Temp Water Temp Dewpoint Dewpoint Depression Visibility Wind Speed Wind Dir Waves Ship Positions

Gaia

Last reported at 2017-May-25 21:56 UTC. Time now 2017-May-25 22:01 UTC.
Position N 52°23' E 004°56'.

Length 12 m.

Type: Sailing vessel. MMSI: 244615031.

Date/timePositionNaut miles runAvg speedWind from/ knotsBaromVisibWave heightAir tempDewpointWater temp
2017-May-25 21:56N 52°23' E 004°56'0 0.0
2017-May-25 21:29N 52°23' E 004°56'0 0.0
2017-May-25 20:59N 52°23' E 004°56'0 0.0
2017-May-25 20:29N 52°23' E 004°56'0 0.0
2017-May-25 19:59N 52°23' E 004°56'0 0.0
2017-May-25 19:29N 52°23' E 004°56'0 0.0
2017-May-25 18:59N 52°23' E 004°56'0 0.0
2017-May-25 18:29N 52°23' E 004°56'0 0.0
2017-May-25 17:59N 52°23' E 004°56'0 0.0
2017-May-25 17:29N 52°23' E 004°56'0 0.0
2017-May-25 16:59N 52°23' E 004°56'0 0.0
2017-May-25 16:29N 52°23' E 004°56'0 0.0
2017-May-25 15:59N 52°23' E 004°56'0 0.3
2017-May-25 15:30N 52°23' E 004°57'1 2.0
2017-May-25 15:00N 52°23' E 004°58'4 3.6
2017-May-25 14:00N 52°23' E 005°04'2 3.1
2017-May-25 13:30N 52°24' E 005°06'1 2.7
2017-May-25 13:00N 52°25' E 005°07'1 2.6
2017-May-25 12:30N 52°26' E 005°09'2 3.0
2017-May-25 12:00N 52°26' E 005°12'2 3.4
2017-May-25 11:30N 52°27' E 005°14'11 0.5
2017-May-24 14:51N 52°34' E 005°28'2 6.6
2017-May-24 14:31N 52°36' E 005°29'7 7.2
2017-May-24 13:29N 52°43' E 005°33'  
Track history (hours):
 
Tides and Currents Weather Stations Pressure Air Temp Water Temp Dewpoint Dewpoint Depression Visibility Wind Speed Wind Dir Waves Ship Positions

Gaia

Last reported at 2017-May-25 21:56 UTC. Time now 2017-May-25 22:01 UTC.
Position N 52°23' E 004°56'.

Length 12 m.

Type: Sailing vessel. MMSI: 244615031.

Date/timePositionNaut miles runAvg speedWind from/ knotsBaromVisibWave heightAir tempDewpointWater temp
2017-May-25 21:56N 52°23' E 004°56'0 0.0
2017-May-25 21:29N 52°23' E 004°56'0 0.0
2017-May-25 20:59N 52°23' E 004°56'0 0.0
2017-May-25 20:29N 52°23' E 004°56'0 0.0
2017-May-25 19:59N 52°23' E 004°56'0 0.0
2017-May-25 19:29N 52°23' E 004°56'0 0.0
2017-May-25 18:59N 52°23' E 004°56'0 0.0
2017-May-25 18:29N 52°23' E 004°56'0 0.0
2017-May-25 17:59N 52°23' E 004°56'0 0.0
2017-May-25 17:29N 52°23' E 004°56'0 0.0
2017-May-25 16:59N 52°23' E 004°56'0 0.0
2017-May-25 16:29N 52°23' E 004°56'0 0.0
2017-May-25 15:59N 52°23' E 004°56'0 0.3
2017-May-25 15:30N 52°23' E 004°57'1 2.0
2017-May-25 15:00N 52°23' E 004°58'4 3.6
2017-May-25 14:00N 52°23' E 005°04'2 3.1
2017-May-25 13:30N 52°24' E 005°06'1 2.7
2017-May-25 13:00N 52°25' E 005°07'1 2.6
2017-May-25 12:30N 52°26' E 005°09'2 3.0
2017-May-25 12:00N 52°26' E 005°12'2 3.4
2017-May-25 11:30N 52°27' E 005°14'11 0.5
2017-May-24 14:51N 52°34' E 005°28'2 6.6
2017-May-24 14:31N 52°36' E 005°29'7 7.2
2017-May-24 13:29N 52°43' E 005°33'  

Dump ship's entire track history